Time;durP1;ratioP1;P1;durP2;ratioP2;P2;SDS_P1;SDS_P2;PMS_P1;PMS_P2;Temp;Humidity;BMP_temperature;BMP_pressure;BME280_temperature;BME280_humidity;BME280_pressure;Samples;Min_cycle;Max_cycle;Signal;HPM_P1;HPM_P2
2022/01/30 00:01:36;;;;;;;;;;;0.70;99.90;;;;;;4174180;28;20449;-51
2022/01/30 00:03:38;;;;;;;;;;;0.30;99.90;;;;;;4170816;28;20039;-52
2022/01/30 00:05:40;;;;;;;;;;;0.10;99.90;;;;;;4178648;28;20051;-52
2022/01/30 00:07:42;;;;;;;;;;;-0.10;99.90;;;;;;4175957;28;20012;-52
2022/01/30 00:09:46;;;;;;;;;;;0.00;99.90;;;;;;4170099;28;20420;-52
2022/01/30 00:11:54;;;;;;;;;;;0.00;99.90;;;;;;4178190;28;19928;-53
2022/01/30 00:13:56;;;;;;;;;;;0.00;99.90;;;;;;4170418;28;19924;-52
2022/01/30 00:16:03;;;;;;;;;;;0.00;99.90;;;;;;4170447;28;19931;-52
2022/01/30 00:20:27;;;;;;;;;;;-0.10;99.90;;;;;;4172754;28;20008;-51
2022/01/30 00:26:58;;;;;;;;;;;-0.10;99.90;;;;;;4176748;28;19936;-51
2022/01/30 00:29:00;;;;;;;;;;;0.10;99.90;;;;;;4176574;28;20015;-49
2022/01/30 00:31:02;;;;;;;;;;;0.20;99.90;;;;;;4178959;28;19932;-52
2022/01/30 00:33:04;;;;;;;;;;;0.20;99.90;;;;;;4177366;28;19933;-51
2022/01/30 00:35:11;;;;;;;;;;;0.30;99.90;;;;;;4177352;28;20351;-51
2022/01/30 00:37:12;;;;;;;;;;;0.40;99.90;;;;;;4179577;28;20384;-52
2022/01/30 00:39:14;;;;;;;;;;;0.50;99.90;;;;;;4168751;28;19936;-52
2022/01/30 00:41:16;;;;;;;;;;;0.50;99.90;;;;;;4171774;28;19931;-51
2022/01/30 00:43:19;;;;;;;;;;;0.40;99.90;;;;;;4173337;28;20035;-52
2022/01/30 00:45:21;;;;;;;;;;;0.10;99.90;;;;;;4175379;28;20407;-51
2022/01/30 00:47:23;;;;;;;;;;;-0.10;99.90;;;;;;4177286;28;19925;-51
2022/01/30 00:49:25;;;;;;;;;;;0.20;99.90;;;;;;4178859;28;19975;-52
2022/01/30 00:51:27;;;;;;;;;;;0.10;99.90;;;;;;4171634;28;19932;-52
2022/01/30 00:53:29;;;;;;;;;;;-0.30;99.90;;;;;;4166385;28;19932;-52
2022/01/30 00:55:31;;;;;;;;;;;-0.10;99.90;;;;;;4177581;28;20031;-51
2022/01/30 00:57:33;;;;;;;;;;;0.00;99.90;;;;;;4170481;28;19929;-52
2022/01/30 00:59:35;;;;;;;;;;;-0.10;99.90;;;;;;4165832;28;19929;-52
2022/01/30 01:01:37;;;;;;;;;;;-0.10;99.90;;;;;;4178199;28;19932;-51
2022/01/30 01:03:39;;;;;;;;;;;0.00;99.90;;;;;;4169128;28;19929;-52
2022/01/30 01:05:41;;;;;;;;;;;-0.10;99.90;;;;;;4163762;28;19929;-52
2022/01/30 01:07:46;;;;;;;;;;;-0.10;99.90;;;;;;4169030;28;20361;-52
2022/01/30 01:10:03;;;;;;;;;;;-0.10;99.90;;;;;;4170208;28;19947;-51
2022/01/30 01:12:32;;;;;;;;;;;-0.20;99.90;;;;;;4178443;28;19929;-52
2022/01/30 01:24:09;;;;;;;;;;;-0.30;99.90;;;;;;4176948;28;20016;-52
2022/01/30 01:26:12;;;;;;;;;;;-0.40;99.90;;;;;;4176518;28;19956;-52
2022/01/30 01:28:14;;;;;;;;;;;-0.30;99.90;;;;;;4176839;28;20312;-51
2022/01/30 01:30:15;;;;;;;;;;;-0.20;99.90;;;;;;4177750;28;19956;-51
2022/01/30 01:32:17;;;;;;;;;;;-0.20;99.90;;;;;;4172426;28;20011;-51
2022/01/30 01:34:41;;;;;;;;;;;-0.10;99.90;;;;;;4167377;28;19932;-52
2022/01/30 01:36:41;;;;;;;;;;;-0.10;99.90;;;;;;4177750;28;19928;-51
2022/01/30 01:38:43;;;;;;;;;;;-0.10;99.90;;;;;;4176923;28;20027;-52
2022/01/30 01:40:53;;;;;;;;;;;-0.10;99.90;;;;;;4174603;28;19932;-51
2022/01/30 01:42:56;;;;;;;;;;;-0.20;99.90;;;;;;4176329;28;20525;-51
2022/01/30 01:44:59;;;;;;;;;;;-0.50;99.90;;;;;;4176177;28;19932;-52
2022/01/30 01:47:02;;;;;;;;;;;-0.60;99.90;;;;;;4175034;28;20432;-52
2022/01/30 01:49:04;;;;;;;;;;;-0.90;99.90;;;;;;4177643;28;19978;-52
2022/01/30 01:51:14;;;;;;;;;;;-0.90;99.90;;;;;;4175696;28;19968;-53
2022/01/30 01:53:17;;;;;;;;;;;-0.90;99.90;;;;;;4173950;28;19964;-50
2022/01/30 01:55:19;;;;;;;;;;;-1.00;99.90;;;;;;4177597;28;19963;-52
2022/01/30 01:57:21;;;;;;;;;;;-1.00;99.90;;;;;;4166798;28;19961;-52
2022/01/30 01:59:23;;;;;;;;;;;-1.00;99.90;;;;;;4169029;28;19988;-50
2022/01/30 02:01:26;;;;;;;;;;;-0.90;99.90;;;;;;4176295;28;19929;-52
2022/01/30 02:03:28;;;;;;;;;;;-0.70;99.90;;;;;;4175864;28;19974;-50
2022/01/30 02:05:33;;;;;;;;;;;-0.60;99.90;;;;;;4175381;28;19925;-53
2022/01/30 02:09:55;;;;;;;;;;;-0.90;99.90;;;;;;4177349;28;19997;-52
2022/01/30 02:11:58;;;;;;;;;;;-0.90;99.90;;;;;;4174010;28;20016;-48
2022/01/30 02:25:37;;;;;;;;;;;-1.00;99.90;;;;;;4176499;28;19932;-52
2022/01/30 02:27:39;;;;;;;;;;;-1.00;99.90;;;;;;4172032;28;20359;-52
2022/01/30 02:29:41;;;;;;;;;;;-1.10;99.90;;;;;;4176100;28;19933;-50
2022/01/30 02:31:43;;;;;;;;;;;-1.20;99.90;;;;;;4164288;28;20008;-51
2022/01/30 02:33:45;;;;;;;;;;;-1.20;99.90;;;;;;4171936;28;19936;-51
2022/01/30 02:35:47;;;;;;;;;;;-1.20;99.90;;;;;;4176977;28;19971;-52
2022/01/30 02:37:52;;;;;;;;;;;-1.30;99.90;;;;;;4175999;28;19925;-51
2022/01/30 02:39:54;;;;;;;;;;;-1.30;99.90;;;;;;4174189;28;19933;-51
2022/01/30 02:41:56;;;;;;;;;;;-1.40;99.90;;;;;;4175005;28;20028;-51
2022/01/30 02:44:10;;;;;;;;;;;-1.40;99.90;;;;;;4176056;28;20321;-52
2022/01/30 02:46:24;;;;;;;;;;;-1.40;99.90;;;;;;4175658;28;19960;-52
2022/01/30 02:48:34;;;;;;;;;;;-1.40;99.90;;;;;;4175716;28;20444;-51
2022/01/30 02:50:52;;;;;;;;;;;-1.40;99.90;;;;;;4161987;28;19983;-52
2022/01/30 02:52:57;;;;;;;;;;;-1.50;99.90;;;;;;4175345;28;20456;-51
2022/01/30 02:54:59;;;;;;;;;;;-1.40;99.90;;;;;;4178792;28;19932;-50
2022/01/30 02:57:01;;;;;;;;;;;-1.40;99.90;;;;;;4161021;28;19936;-51
2022/01/30 02:59:03;;;;;;;;;;;-1.50;99.90;;;;;;4173455;28;19971;-51
2022/01/30 03:01:05;;;;;;;;;;;-1.50;99.90;;;;;;4176327;28;19967;-52
2022/01/30 03:03:07;;;;;;;;;;;-1.50;99.90;;;;;;4176404;28;19971;-51
2022/01/30 03:05:09;;;;;;;;;;;-1.40;99.90;;;;;;4174097;28;19971;-51
2022/01/30 03:07:11;;;;;;;;;;;-1.50;99.90;;;;;;4173638;28;19928;-51
2022/01/30 03:09:13;;;;;;;;;;;-1.60;99.90;;;;;;4176167;28;19925;-52
2022/01/30 03:11:15;;;;;;;;;;;-1.70;99.90;;;;;;4173456;28;19983;-51
2022/01/30 03:13:17;;;;;;;;;;;-1.70;99.90;;;;;;4176357;28;20494;-52
2022/01/30 03:15:19;;;;;;;;;;;-1.70;99.90;;;;;;4173822;28;19924;-50
2022/01/30 03:17:21;;;;;;;;;;;-1.60;99.90;;;;;;4174587;28;19932;-52
2022/01/30 03:19:23;;;;;;;;;;;-1.60;99.90;;;;;;4174195;28;20397;-51
2022/01/30 03:21:25;;;;;;;;;;;-1.50;99.90;;;;;;4172397;28;20028;-52
2022/01/30 03:23:28;;;;;;;;;;;-1.40;99.90;;;;;;4174498;28;19986;-51
2022/01/30 03:25:32;;;;;;;;;;;-1.30;99.90;;;;;;4166250;28;20062;-51
2022/01/30 03:27:34;;;;;;;;;;;-1.40;99.90;;;;;;4172810;28;19987;-51
2022/01/30 03:29:37;;;;;;;;;;;-1.50;99.90;;;;;;4178547;28;19929;-52
2022/01/30 03:31:40;;;;;;;;;;;-1.40;99.90;;;;;;4179027;28;19951;-51
2022/01/30 03:33:42;;;;;;;;;;;-1.40;99.90;;;;;;4179051;28;20463;-50
2022/01/30 03:35:44;;;;;;;;;;;-1.50;99.90;;;;;;4175706;28;20016;-51
2022/01/30 03:37:46;;;;;;;;;;;-1.30;99.90;;;;;;4175636;28;19964;-50
2022/01/30 03:39:48;;;;;;;;;;;-1.20;99.90;;;;;;4172053;28;20014;-51
2022/01/30 03:41:50;;;;;;;;;;;-1.00;99.90;;;;;;4178001;28;19948;-51
2022/01/30 03:43:52;;;;;;;;;;;-1.10;99.90;;;;;;4178508;28;19929;-52
2022/01/30 03:45:54;;;;;;;;;;;-1.30;99.90;;;;;;4177544;28;19933;-52
2022/01/30 03:47:56;;;;;;;;;;;-1.30;99.90;;;;;;4176870;28;19925;-52
2022/01/30 03:49:58;;;;;;;;;;;-1.30;99.90;;;;;;4179630;28;20978;-52
2022/01/30 03:52:00;;;;;;;;;;;-1.30;99.90;;;;;;4178342;28;19928;-52
2022/01/30 03:54:02;;;;;;;;;;;-1.60;99.90;;;;;;4178351;28;20012;-51
2022/01/30 03:56:04;;;;;;;;;;;-1.50;99.90;;;;;;4179876;28;19924;-51
2022/01/30 03:58:07;;;;;;;;;;;-1.50;99.90;;;;;;4178210;28;20490;-52
2022/01/30 04:00:09;;;;;;;;;;;-1.70;99.90;;;;;;4176644;28;19993;-52
2022/01/30 04:02:11;;;;;;;;;;;-1.80;99.90;;;;;;4179421;28;19960;-52
2022/01/30 04:04:13;;;;;;;;;;;-1.90;99.90;;;;;;4176653;28;19931;-51
2022/01/30 04:06:15;;;;;;;;;;;-2.00;99.90;;;;;;4177697;28;19925;-52
2022/01/30 04:08:17;;;;;;;;;;;-2.00;99.90;;;;;;4168285;28;20286;-51
2022/01/30 04:10:19;;;;;;;;;;;-2.00;99.90;;;;;;4176341;28;20448;-53
2022/01/30 04:12:21;;;;;;;;;;;-2.00;99.90;;;;;;4176261;28;19929;-51
2022/01/30 04:14:23;;;;;;;;;;;-2.00;99.90;;;;;;4179157;28;20661;-52
2022/01/30 04:16:25;;;;;;;;;;;-1.90;99.90;;;;;;4176362;28;20392;-52
2022/01/30 04:18:28;;;;;;;;;;;-1.90;99.90;;;;;;4176091;28;19933;-51
2022/01/30 04:20:30;;;;;;;;;;;-1.80;99.90;;;;;;4178436;28;20027;-52
2022/01/30 04:22:32;;;;;;;;;;;-1.90;99.90;;;;;;4173187;28;20003;-52
2022/01/30 04:24:34;;;;;;;;;;;-2.10;99.90;;;;;;4167720;28;19953;-52
2022/01/30 04:26:36;;;;;;;;;;;-2.00;99.90;;;;;;4178464;28;20012;-52
2022/01/30 04:28:38;;;;;;;;;;;-1.90;99.90;;;;;;4176028;28;20233;-52
2022/01/30 04:30:40;;;;;;;;;;;-1.90;99.90;;;;;;4178799;28;20407;-50
2022/01/30 04:32:44;;;;;;;;;;;-1.80;99.90;;;;;;4165753;28;20296;-51
2022/01/30 04:34:53;;;;;;;;;;;-1.80;99.90;;;;;;4171650;28;19967;-51
2022/01/30 04:39:10;;;;;;;;;;;-1.80;99.90;;;;;;4175153;28;20384;-51
2022/01/30 05:02:01;;;;;;;;;;;-1.80;99.90;;;;;;4176968;28;19933;-51
2022/01/30 05:06:13;;;;;;;;;;;-1.90;99.90;;;;;;4173488;28;19940;-51
2022/01/30 05:08:15;;;;;;;;;;;-1.90;99.90;;;;;;4175904;28;20681;-52
2022/01/30 05:10:17;;;;;;;;;;;-1.80;99.90;;;;;;4178944;28;19932;-52
2022/01/30 05:12:19;;;;;;;;;;;-2.00;99.90;;;;;;4172835;28;19987;-51
2022/01/30 05:14:24;;;;;;;;;;;-2.10;99.90;;;;;;4175628;28;19986;-51
2022/01/30 05:16:26;;;;;;;;;;;-2.10;99.90;;;;;;4161071;28;20523;-51
2022/01/30 05:18:29;;;;;;;;;;;-2.10;99.90;;;;;;4175241;28;20035;-51
2022/01/30 05:20:31;;;;;;;;;;;-2.10;99.90;;;;;;4176832;28;19932;-52
2022/01/30 05:22:33;;;;;;;;;;;-2.10;99.90;;;;;;4170765;28;20468;-51
2022/01/30 05:24:35;;;;;;;;;;;-2.10;99.90;;;;;;4176382;28;19932;-52
2022/01/30 05:26:40;;;;;;;;;;;-2.10;99.90;;;;;;4177592;28;20484;-52
2022/01/30 05:28:42;;;;;;;;;;;-2.20;99.90;;;;;;4172633;28;20297;-50
2022/01/30 05:30:45;;;;;;;;;;;-2.20;99.90;;;;;;4169603;28;19931;-51
2022/01/30 05:32:48;;;;;;;;;;;-2.10;99.90;;;;;;4173221;28;20316;-52
2022/01/30 05:34:50;;;;;;;;;;;-2.20;99.90;;;;;;4176712;28;19960;-52
2022/01/30 05:36:52;;;;;;;;;;;-2.10;99.90;;;;;;4172230;28;19936;-52
2022/01/30 05:38:55;;;;;;;;;;;-2.10;99.90;;;;;;4171902;28;19963;-51
2022/01/30 05:40:57;;;;;;;;;;;-2.30;99.90;;;;;;4177631;28;19951;-51
2022/01/30 05:42:59;;;;;;;;;;;-2.40;99.90;;;;;;4176303;28;20824;-52
2022/01/30 05:45:14;;;;;;;;;;;-2.30;99.90;;;;;;4175803;28;19924;-51
2022/01/30 05:47:25;;;;;;;;;;;-2.20;99.90;;;;;;4177906;28;20031;-52
2022/01/30 05:49:29;;;;;;;;;;;-2.20;99.90;;;;;;4169552;28;19925;-50
2022/01/30 05:51:31;;;;;;;;;;;-2.30;99.90;;;;;;4174621;28;19971;-51
2022/01/30 05:53:33;;;;;;;;;;;-2.20;99.90;;;;;;4177154;28;19932;-51
2022/01/30 05:55:35;;;;;;;;;;;-2.20;99.90;;;;;;4158421;28;20613;-52
2022/01/30 05:57:37;;;;;;;;;;;-2.20;99.90;;;;;;4176252;28;20428;-52
2022/01/30 05:59:39;;;;;;;;;;;-2.20;99.90;;;;;;4178135;28;19925;-51
2022/01/30 06:01:41;;;;;;;;;;;-2.30;99.90;;;;;;4171104;28;19967;-52
2022/01/30 06:03:43;;;;;;;;;;;-2.30;99.90;;;;;;4170355;28;19925;-51
2022/01/30 06:05:49;;;;;;;;;;;-2.30;99.90;;;;;;4163855;28;19947;-52
2022/01/30 06:07:55;;;;;;;;;;;-2.30;99.90;;;;;;4169083;28;19948;-52
2022/01/30 06:09:58;;;;;;;;;;;-2.30;99.90;;;;;;4164997;28;19999;-53
2022/01/30 06:12:00;;;;;;;;;;;-2.40;99.90;;;;;;4176966;28;19925;-52
2022/01/30 06:14:01;;;;;;;;;;;-2.40;99.90;;;;;;4175633;28;19990;-52
2022/01/30 06:16:04;;;;;;;;;;;-2.60;99.90;;;;;;4175868;28;20023;-50
2022/01/30 06:18:06;;;;;;;;;;;-2.60;99.90;;;;;;4171175;28;19925;-50
2022/01/30 06:20:08;;;;;;;;;;;-2.70;99.90;;;;;;4170608;28;19925;-48
2022/01/30 06:22:10;;;;;;;;;;;-2.60;99.90;;;;;;4175683;28;20476;-49
2022/01/30 06:24:12;;;;;;;;;;;-2.60;99.90;;;;;;4164900;28;20409;-51
2022/01/30 06:26:14;;;;;;;;;;;-2.50;99.90;;;;;;4169252;28;19924;-52
2022/01/30 06:28:16;;;;;;;;;;;-2.50;99.90;;;;;;4175642;28;19936;-51
2022/01/30 06:30:21;;;;;;;;;;;-2.40;99.90;;;;;;4176575;28;20379;-51
2022/01/30 06:32:23;;;;;;;;;;;-2.30;99.90;;;;;;4175506;28;20400;-52
2022/01/30 06:34:26;;;;;;;;;;;-2.20;99.90;;;;;;4157994;28;19997;-51
2022/01/30 06:36:28;;;;;;;;;;;-2.40;99.90;;;;;;4166621;28;19929;-49
2022/01/30 06:38:30;;;;;;;;;;;-2.50;99.90;;;;;;4167916;28;20319;-52
2022/01/30 06:40:32;;;;;;;;;;;-2.60;99.90;;;;;;4176898;28;19925;-51
2022/01/30 06:42:34;;;;;;;;;;;-2.60;99.90;;;;;;4175816;28;19936;-52
2022/01/30 06:44:37;;;;;;;;;;;-2.60;99.90;;;;;;4173720;28;20019;-49
2022/01/30 06:46:39;;;;;;;;;;;-2.60;99.90;;;;;;4177537;28;20434;-52
2022/01/30 06:48:41;;;;;;;;;;;-2.50;99.90;;;;;;4174416;28;19924;-52
2022/01/30 06:50:43;;;;;;;;;;;-2.60;99.90;;;;;;4174498;28;19932;-51
2022/01/30 06:52:45;;;;;;;;;;;-2.80;99.90;;;;;;4177307;28;20028;-51
2022/01/30 06:54:47;;;;;;;;;;;-2.70;99.90;;;;;;4175099;28;19979;-51
2022/01/30 06:56:49;;;;;;;;;;;-2.70;99.90;;;;;;4175530;28;20679;-51
2022/01/30 06:58:55;;;;;;;;;;;-2.90;99.90;;;;;;4177001;28;19925;-51
2022/01/30 07:00:57;;;;;;;;;;;-3.00;99.90;;;;;;4174858;28;19925;-51
2022/01/30 07:03:03;;;;;;;;;;;-3.00;99.90;;;;;;4175783;28;19935;-52
2022/01/30 07:05:05;;;;;;;;;;;-2.90;99.90;;;;;;4173408;28;20359;-51
2022/01/30 07:07:07;;;;;;;;;;;-2.80;99.90;;;;;;4170575;28;19931;-50
2022/01/30 07:09:09;;;;;;;;;;;-2.80;99.90;;;;;;4172394;28;19933;-52
2022/01/30 07:11:11;;;;;;;;;;;-2.80;99.90;;;;;;4175697;28;19968;-50
2022/01/30 07:13:13;;;;;;;;;;;-2.70;99.90;;;;;;4167380;28;19972;-50
2022/01/30 07:15:15;;;;;;;;;;;-2.60;99.90;;;;;;4175022;28;20332;-50
2022/01/30 07:17:17;;;;;;;;;;;-2.60;99.90;;;;;;4170132;28;20705;-50
2022/01/30 07:19:19;;;;;;;;;;;-2.60;99.90;;;;;;4171493;28;19928;-51
2022/01/30 07:21:21;;;;;;;;;;;-2.60;99.90;;;;;;4175194;28;19932;-52
2022/01/30 07:23:23;;;;;;;;;;;-2.60;99.90;;;;;;4176525;28;19928;-51
2022/01/30 07:25:28;;;;;;;;;;;-2.60;99.90;;;;;;4170068;28;20006;-50
2022/01/30 07:27:30;;;;;;;;;;;-2.50;99.90;;;;;;4171189;28;19976;-51
2022/01/30 07:29:32;;;;;;;;;;;-2.30;99.90;;;;;;4176358;28;19960;-52
2022/01/30 07:31:34;;;;;;;;;;;-2.20;99.90;;;;;;4174960;28;19973;-51
2022/01/30 07:33:39;;;;;;;;;;;-2.10;99.90;;;;;;4174950;28;19935;-52
2022/01/30 07:35:42;;;;;;;;;;;-2.00;99.90;;;;;;4176307;28;19964;-50
2022/01/30 07:37:44;;;;;;;;;;;-1.90;99.90;;;;;;4173355;28;20015;-51
2022/01/30 07:39:46;;;;;;;;;;;-1.90;99.90;;;;;;4176230;28;20333;-51
2022/01/30 07:41:48;;;;;;;;;;;-1.80;99.90;;;;;;4178151;28;20015;-51
2022/01/30 07:43:50;;;;;;;;;;;-1.70;99.90;;;;;;4174681;28;19960;-54
2022/01/30 07:45:52;;;;;;;;;;;-1.50;99.90;;;;;;4176419;28;19940;-53
2022/01/30 07:47:54;;;;;;;;;;;-1.40;99.90;;;;;;4175350;28;19982;-54
2022/01/30 07:49:56;;;;;;;;;;;-1.40;99.90;;;;;;4171966;28;19933;-53
2022/01/30 07:51:58;;;;;;;;;;;-1.40;99.90;;;;;;4163080;28;19971;-53
2022/01/30 07:54:00;;;;;;;;;;;-1.30;99.90;;;;;;4175264;28;19961;-54
2022/01/30 07:56:02;;;;;;;;;;;-1.40;99.90;;;;;;4174701;28;19929;-53
2022/01/30 07:58:04;;;;;;;;;;;-1.50;99.90;;;;;;4175162;28;19951;-54
2022/01/30 08:00:06;;;;;;;;;;;-1.40;99.90;;;;;;4165799;28;19968;-52
2022/01/30 08:02:08;;;;;;;;;;;-1.30;99.90;;;;;;4167486;28;19924;-53
2022/01/30 08:04:10;;;;;;;;;;;-1.20;99.90;;;;;;4160188;28;19925;-53
2022/01/30 08:06:12;;;;;;;;;;;-1.10;99.90;;;;;;4176513;28;19924;-53
2022/01/30 08:08:14;;;;;;;;;;;-1.10;99.90;;;;;;4170702;28;20031;-53
2022/01/30 08:10:16;;;;;;;;;;;-1.10;99.90;;;;;;4180164;28;19928;-53
2022/01/30 08:12:19;;;;;;;;;;;-1.00;99.90;;;;;;4177549;28;19961;-54
2022/01/30 08:14:21;;;;;;;;;;;-0.80;99.90;;;;;;4177527;28;20457;-54
2022/01/30 08:16:26;;;;;;;;;;;-0.80;99.90;;;;;;4179374;28;19928;-54
2022/01/30 08:18:28;;;;;;;;;;;-0.70;99.90;;;;;;4176009;28;20289;-53
2022/01/30 08:20:30;;;;;;;;;;;-0.70;99.90;;;;;;4175165;28;19932;-54
2022/01/30 08:22:41;;;;;;;;;;;-0.70;99.90;;;;;;4179355;28;19925;-53
2022/01/30 08:24:43;;;;;;;;;;;-0.80;99.90;;;;;;4177773;28;19932;-54
2022/01/30 08:26:46;;;;;;;;;;;-0.80;99.90;;;;;;4176079;28;19932;-54
2022/01/30 08:28:47;;;;;;;;;;;-0.70;99.90;;;;;;4179737;28;19932;-53
2022/01/30 08:30:50;;;;;;;;;;;-0.60;99.90;;;;;;4177030;28;20396;-54
2022/01/30 08:32:52;;;;;;;;;;;-0.50;99.90;;;;;;4177189;28;19960;-54
2022/01/30 08:34:54;;;;;;;;;;;-0.40;99.90;;;;;;4175873;28;20452;-53
2022/01/30 08:36:56;;;;;;;;;;;-0.20;99.90;;;;;;4177142;28;19968;-54
2022/01/30 08:38:58;;;;;;;;;;;0.00;99.90;;;;;;4176250;28;19957;-53
2022/01/30 08:41:00;;;;;;;;;;;0.50;99.90;;;;;;4178827;28;19929;-53
2022/01/30 08:43:02;;;;;;;;;;;0.60;99.90;;;;;;4177081;28;20020;-54
2022/01/30 08:45:06;;;;;;;;;;;0.90;99.90;;;;;;4177697;28;19975;-52
2022/01/30 08:47:12;;;;;;;;;;;1.10;99.90;;;;;;4177895;28;19929;-54
2022/01/30 08:49:14;;;;;;;;;;;1.10;99.90;;;;;;4177028;28;20036;-54
2022/01/30 08:51:16;;;;;;;;;;;1.00;99.90;;;;;;4175289;28;19961;-54
2022/01/30 08:53:17;;;;;;;;;;;0.90;99.90;;;;;;4178586;28;19929;-54
2022/01/30 08:55:19;;;;;;;;;;;1.10;99.90;;;;;;4175691;28;20658;-54
2022/01/30 08:57:21;;;;;;;;;;;1.30;99.90;;;;;;4178909;28;19948;-54
2022/01/30 08:59:23;;;;;;;;;;;1.60;99.90;;;;;;4173728;28;19971;-54
2022/01/30 09:01:30;;;;;;;;;;;1.70;99.90;;;;;;4177022;28;19925;-53
2022/01/30 09:03:32;;;;;;;;;;;1.60;99.90;;;;;;4177003;28;20027;-54
2022/01/30 09:05:35;;;;;;;;;;;1.70;99.90;;;;;;4178784;28;19931;-54
2022/01/30 09:07:37;;;;;;;;;;;1.80;99.90;;;;;;4173447;28;19929;-54
2022/01/30 09:09:39;;;;;;;;;;;2.00;99.90;;;;;;4174944;28;19940;-54
2022/01/30 09:11:41;;;;;;;;;;;2.20;99.90;;;;;;4177373;28;19928;-54
2022/01/30 09:13:43;;;;;;;;;;;2.10;99.90;;;;;;4172551;28;19955;-54
2022/01/30 09:15:45;;;;;;;;;;;2.10;99.90;;;;;;4178177;28;19924;-55
2022/01/30 09:17:46;;;;;;;;;;;2.00;99.90;;;;;;4181598;28;19955;-54
2022/01/30 09:19:48;;;;;;;;;;;2.00;99.90;;;;;;4175481;28;20647;-54
2022/01/30 09:21:52;;;;;;;;;;;2.00;99.90;;;;;;4176979;28;19996;-55
2022/01/30 09:23:54;;;;;;;;;;;2.10;99.90;;;;;;4176816;28;19960;-54
2022/01/30 09:25:56;;;;;;;;;;;2.20;99.90;;;;;;4176703;28;20368;-54
2022/01/30 09:27:58;;;;;;;;;;;2.60;99.90;;;;;;4169089;28;19963;-55
2022/01/30 09:30:00;;;;;;;;;;;2.80;99.90;;;;;;4176009;28;19924;-54
2022/01/30 09:32:03;;;;;;;;;;;2.70;99.90;;;;;;4176962;28;20308;-55
2022/01/30 09:34:05;;;;;;;;;;;2.90;99.90;;;;;;4176319;28;20347;-54
2022/01/30 09:36:07;;;;;;;;;;;3.30;99.90;;;;;;4169838;28;20343;-54
2022/01/30 09:38:09;;;;;;;;;;;3.50;99.90;;;;;;4170500;28;19928;-55
2022/01/30 09:40:13;;;;;;;;;;;3.80;99.90;;;;;;4170294;28;19956;-54
2022/01/30 09:42:16;;;;;;;;;;;4.10;99.90;;;;;;4168276;28;20039;-55
2022/01/30 09:44:20;;;;;;;;;;;4.30;99.90;;;;;;4172518;28;19963;-54
2022/01/30 09:46:21;;;;;;;;;;;4.20;99.90;;;;;;4177334;28;19925;-54
2022/01/30 09:48:24;;;;;;;;;;;4.10;99.90;;;;;;4172834;28;19931;-54
2022/01/30 09:50:27;;;;;;;;;;;4.10;99.90;;;;;;4172643;28;19968;-55
2022/01/30 09:52:29;;;;;;;;;;;4.20;99.90;;;;;;4175846;28;19925;-55
2022/01/30 09:54:31;;;;;;;;;;;4.40;99.90;;;;;;4174775;28;19971;-55
2022/01/30 09:56:33;;;;;;;;;;;4.70;99.90;;;;;;4177669;28;19936;-55
2022/01/30 09:58:35;;;;;;;;;;;5.30;99.90;;;;;;4175753;28;19956;-54
2022/01/30 10:00:37;;;;;;;;;;;5.70;99.90;;;;;;4174556;28;20024;-55
2022/01/30 10:02:42;;;;;;;;;;;5.80;99.90;;;;;;4183913;28;19929;-54
2022/01/30 10:04:45;;;;;;;;;;;6.20;99.90;;;;;;4176373;28;20415;-54
2022/01/30 10:06:56;;;;;;;;;;;6.50;99.90;;;;;;4174694;28;20379;-55
2022/01/30 10:09:05;;;;;;;;;;;6.80;99.90;;;;;;4164655;28;19924;-55
2022/01/30 10:11:26;;;;;;;;;;;6.90;99.90;;;;;;4176330;28;20036;-55
2022/01/30 10:13:31;;;;;;;;;;;7.10;99.90;;;;;;4174863;28;19929;-54
2022/01/30 10:15:54;;;;;;;;;;;7.20;99.90;;;;;;4176611;28;19936;-55
2022/01/30 10:17:56;;;;;;;;;;;7.30;99.90;;;;;;4163748;28;19924;-55
2022/01/30 10:20:12;;;;;;;;;;;7.60;99.90;;;;;;4175011;28;19928;-54
2022/01/30 10:22:14;;;;;;;;;;;8.00;99.90;;;;;;4175719;28;20426;-55
2022/01/30 10:24:19;;;;;;;;;;;8.30;99.90;;;;;;4177804;28;19928;-55
2022/01/30 10:26:29;;;;;;;;;;;8.40;99.90;;;;;;4175942;28;19925;-55
2022/01/30 10:28:32;;;;;;;;;;;8.50;99.90;;;;;;4174156;28;19974;-55
2022/01/30 10:30:40;;;;;;;;;;;8.60;99.90;;;;;;4177276;28;19951;-54
2022/01/30 10:32:52;;;;;;;;;;;8.60;99.90;;;;;;4175029;28;19952;-55
2022/01/30 10:35:05;;;;;;;;;;;8.70;99.90;;;;;;4173321;28;20581;-56
2022/01/30 10:37:18;;;;;;;;;;;9.00;99.90;;;;;;4164435;28;20269;-56
2022/01/30 10:39:23;;;;;;;;;;;9.00;99.90;;;;;;4164440;28;19936;-57
2022/01/30 10:41:33;;;;;;;;;;;9.10;99.90;;;;;;4167306;28;19925;-56
2022/01/30 10:43:55;;;;;;;;;;;9.30;99.90;;;;;;4165001;28;19928;-56
2022/01/30 10:45:57;;;;;;;;;;;9.50;99.90;;;;;;4177596;28;20404;-57
2022/01/30 10:48:09;;;;;;;;;;;9.70;99.90;;;;;;4167840;28;20451;-56
2022/01/30 10:50:22;;;;;;;;;;;9.90;99.90;;;;;;4166586;28;19976;-56
2022/01/30 10:52:24;;;;;;;;;;;10.10;99.90;;;;;;4171021;28;19971;-56
2022/01/30 10:54:29;;;;;;;;;;;10.30;99.90;;;;;;4183027;28;19946;-55
2022/01/30 10:56:31;;;;;;;;;;;10.50;99.90;;;;;;4181931;28;19955;-55
2022/01/30 10:58:33;;;;;;;;;;;10.80;99.90;;;;;;4187526;28;20390;-56
2022/01/30 11:00:39;;;;;;;;;;;11.10;99.90;;;;;;4174244;28;19970;-55
2022/01/30 11:02:41;;;;;;;;;;;11.30;99.90;;;;;;4182097;28;20048;-57
2022/01/30 11:04:45;;;;;;;;;;;11.40;99.90;;;;;;4175879;28;19955;-56
2022/01/30 11:06:48;;;;;;;;;;;11.50;99.90;;;;;;4172330;28;19960;-56
2022/01/30 11:08:51;;;;;;;;;;;11.50;99.90;;;;;;4176344;28;20343;-57
2022/01/30 11:11:11;;;;;;;;;;;12.10;99.90;;;;;;4176242;28;20285;-56
2022/01/30 11:13:24;;;;;;;;;;;11.50;99.90;;;;;;4169217;28;20301;-56
2022/01/30 11:17:31;;;;;;;;;;;11.30;99.90;;;;;;4173786;28;20022;-56
2022/01/30 11:19:35;;;;;;;;;;;11.50;99.90;;;;;;4168052;28;20491;-56
2022/01/30 11:21:38;;;;;;;;;;;11.80;99.90;;;;;;4170565;28;20012;-57
2022/01/30 11:23:41;;;;;;;;;;;12.20;99.90;;;;;;4173212;28;19979;-56
2022/01/30 11:25:43;;;;;;;;;;;12.30;99.90;;;;;;4174978;28;20452;-56
2022/01/30 11:27:49;;;;;;;;;;;12.00;99.90;;;;;;4183674;28;19929;-56
2022/01/30 11:30:02;;;;;;;;;;;12.00;99.90;;;;;;4176721;28;19929;-56
2022/01/30 11:32:06;;;;;;;;;;;12.10;99.90;;;;;;4176032;28;20133;-57
2022/01/30 11:34:08;;;;;;;;;;;12.70;99.90;;;;;;4174741;28;20385;-57
2022/01/30 11:36:11;;;;;;;;;;;13.00;99.90;;;;;;4175678;28;20384;-57
2022/01/30 11:38:13;;;;;;;;;;;13.00;99.90;;;;;;4174350;28;19956;-57
2022/01/30 11:40:16;;;;;;;;;;;13.10;99.90;;;;;;4174877;28;19972;-57
2022/01/30 11:42:23;;;;;;;;;;;13.30;99.90;;;;;;4176676;28;19933;-57
2022/01/30 11:44:26;;;;;;;;;;;13.80;99.90;;;;;;4158520;28;19925;-57
2022/01/30 11:46:28;;;;;;;;;;;13.60;99.90;;;;;;4176725;28;19928;-56
2022/01/30 11:48:30;;;;;;;;;;;13.50;99.90;;;;;;4182256;28;19933;-57
2022/01/30 11:50:33;;;;;;;;;;;13.70;99.90;;;;;;4181288;28;20055;-51
2022/01/30 11:52:53;;;;;;;;;;;13.70;99.90;;;;;;4178067;28;19928;-49
2022/01/30 11:54:57;;;;;;;;;;;13.40;99.90;;;;;;4184079;28;20015;-47
2022/01/30 11:56:59;;;;;;;;;;;13.40;99.90;;;;;;4168548;28;19957;-47
2022/01/30 11:59:05;;;;;;;;;;;13.90;99.90;;;;;;4178081;28;19925;-47
2022/01/30 12:01:25;;;;;;;;;;;13.50;99.90;;;;;;4173035;28;19968;-49
2022/01/30 12:03:29;;;;;;;;;;;13.20;99.90;;;;;;4181329;28;19924;-48
2022/01/30 12:05:35;;;;;;;;;;;13.10;99.90;;;;;;4176545;28;19925;-49
2022/01/30 12:07:41;;;;;;;;;;;13.50;99.90;;;;;;4177834;28;19951;-49
2022/01/30 12:09:43;;;;;;;;;;;13.50;99.90;;;;;;4166277;28;20566;-49
2022/01/30 12:11:50;;;;;;;;;;;13.70;99.90;;;;;;4157358;28;20282;-47
2022/01/30 12:13:52;;;;;;;;;;;13.20;99.90;;;;;;4178962;28;20716;-46
2022/01/30 12:15:54;;;;;;;;;;;13.00;99.90;;;;;;4178895;28;19925;-49
2022/01/30 12:17:56;;;;;;;;;;;12.60;99.90;;;;;;4175654;28;20027;-48
2022/01/30 12:19:58;;;;;;;;;;;12.60;99.90;;;;;;4177641;28;19968;-48
2022/01/30 12:22:20;;;;;;;;;;;12.60;99.90;;;;;;4180692;28;20374;-49
2022/01/30 12:24:22;;;;;;;;;;;13.70;99.90;;;;;;4163093;28;19929;-47
2022/01/30 12:26:24;;;;;;;;;;;13.60;99.90;;;;;;4178332;28;19929;-47
2022/01/30 12:28:42;;;;;;;;;;;13.50;99.90;;;;;;4185137;28;20153;-49
2022/01/30 12:30:47;;;;;;;;;;;13.30;99.90;;;;;;4173474;28;20039;-49
2022/01/30 12:32:52;;;;;;;;;;;13.50;99.90;;;;;;4177965;28;19933;-46
2022/01/30 12:34:54;;;;;;;;;;;14.00;99.90;;;;;;4163772;28;19952;-50
2022/01/30 12:36:56;;;;;;;;;;;14.30;99.90;;;;;;4174332;28;19931;-49
2022/01/30 12:39:02;;;;;;;;;;;14.50;99.90;;;;;;4177269;28;20016;-48
2022/01/30 12:41:14;;;;;;;;;;;13.70;99.90;;;;;;4178793;28;20424;-47
2022/01/30 12:43:25;;;;;;;;;;;13.50;99.90;;;;;;4174876;28;20016;-48
2022/01/30 12:45:27;;;;;;;;;;;13.70;99.90;;;;;;4176987;28;19925;-46
2022/01/30 12:47:29;;;;;;;;;;;14.00;99.90;;;;;;4178977;28;19928;-47
2022/01/30 12:49:39;;;;;;;;;;;14.10;99.90;;;;;;4176648;28;19968;-46
2022/01/30 12:51:43;;;;;;;;;;;14.20;99.90;;;;;;4176593;28;20023;-47
2022/01/30 12:53:44;;;;;;;;;;;13.90;99.90;;;;;;4179541;28;19959;-47
2022/01/30 12:55:48;;;;;;;;;;;13.70;99.90;;;;;;4157360;28;19925;-46
2022/01/30 12:57:54;;;;;;;;;;;13.50;99.90;;;;;;4167105;28;20408;-47
2022/01/30 12:59:57;;;;;;;;;;;13.30;99.90;;;;;;4169223;28;20458;-47
2022/01/30 13:02:06;;;;;;;;;;;13.10;99.90;;;;;;4174053;28;20027;-49